Time;durP1;ratioP1;P1;durP2;ratioP2;P2;SDS_P1;SDS_P2;PMS_P1;PMS_P2;Temp;Humidity;BMP_temperature;BMP_pressure;BME280_temperature;BME280_humidity;BME280_pressure;Samples;Min_cycle;Max_cycle;Signal;HPM_P1;HPM_P2
2022/06/17 00:00:24;;;;;;;10.48;6.28;;;;;;;13.09;100.00;99698.96;1736823;82;21558;-63
2022/06/17 00:02:51;;;;;;;12.28;6.85;;;;;;;13.10;100.00;99705.25;1723305;82;21000;-63
2022/06/17 00:05:17;;;;;;;9.78;6.25;;;;;;;13.16;100.00;99702.17;1727058;82;21102;-63
2022/06/17 00:07:44;;;;;;;11.43;6.25;;;;;;;13.20;100.00;99700.48;1730602;80;21070;-63
2022/06/17 00:10:24;;;;;;;11.63;6.30;;;;;;;13.22;100.00;99698.81;1722535;82;21020;-63
2022/06/17 00:12:52;;;;;;;11.45;6.28;;;;;;;13.22;100.00;99701.00;1723962;82;21035;-63
2022/06/17 00:15:20;;;;;;;10.85;5.85;;;;;;;13.21;100.00;99695.30;1734084;82;21030;-63
2022/06/17 00:17:58;;;;;;;;;;;;;;;13.22;100.00;99691.44;1734485;82;21651;-64
2022/06/17 00:20:23;;;;;;;11.25;5.55;;;;;;;13.26;100.00;99692.48;1736987;80;20401;-63
2022/06/17 00:22:49;;;;;;;10.53;6.05;;;;;;;13.25;100.00;99694.95;1734189;82;21086;-63
2022/06/17 00:25:19;;;;;;;;;;;;;;;13.31;100.00;99698.45;1735456;82;21119;-63
2022/06/17 00:27:47;;;;;;;11.57;5.72;;;;;;;13.33;100.00;99694.87;1724460;82;20141;-63
2022/06/17 00:30:18;;;;;;;9.60;5.35;;;;;;;13.23;100.00;99690.88;1738685;80;21154;-64
2022/06/17 00:32:45;;;;;;;13.43;5.83;;;;;;;13.20;100.00;99683.27;1694067;83;21003;-63
2022/06/17 00:35:13;;;;;;;12.73;5.60;;;;;;;13.19;100.00;99682.45;1742154;80;21129;-64
2022/06/17 00:37:41;;;;;;;10.43;5.30;;;;;;;13.19;100.00;99681.63;1704647;83;21003;-63
2022/06/17 00:40:15;;;;;;;10.90;5.70;;;;;;;13.20;100.00;99679.17;1725753;82;21039;-63
2022/06/17 00:42:42;;;;;;;11.38;5.42;;;;;;;13.20;100.00;99678.63;1740603;81;21019;-65
2022/06/17 00:45:27;;;;;;;9.40;5.12;;;;;;;13.18;100.00;99679.45;1726597;82;21003;-64
2022/06/17 00:48:12;;;;;;;10.35;4.83;;;;;;;13.16;100.00;99669.37;1742082;81;21078;-64
2022/06/17 00:50:55;;;;;;;8.28;4.92;;;;;;;13.15;100.00;99667.73;1717611;82;21035;-64
2022/06/17 00:53:26;;;;;;;9.98;4.87;;;;;;;13.19;100.00;99667.97;1738650;80;21015;-65
2022/06/17 00:55:59;;;;;;;9.43;4.85;;;;;;;13.20;100.00;99673.70;1751632;80;21636;-64
2022/06/17 00:58:53;;;;;;;8.73;4.78;;;;;;;13.20;100.00;99673.16;1722359;80;21530;-64
2022/06/17 01:03:06;;;;;;;8.30;5.17;;;;;;;13.21;100.00;99669.88;1791414;78;23264;-65
2022/06/17 01:05:41;;;;;;;9.43;5.10;;;;;;;13.13;100.00;99667.22;1754040;80;21070;-65
2022/06/17 01:11:12;;;;;;;8.20;5.10;;;;;;;13.17;100.00;99671.00;1736561;80;21086;-63
2022/06/17 01:13:38;;;;;;;9.43;5.83;;;;;;;13.14;100.00;99672.14;1709874;83;21524;-64
2022/06/17 01:16:06;;;;;;;7.45;4.60;;;;;;;13.06;100.00;99665.35;1695764;83;21078;-63
2022/06/17 01:18:38;;;;;;;7.97;4.70;;;;;;;13.01;100.00;99667.31;1683626;83;21525;-63
2022/06/17 01:21:34;;;;;;;7.97;4.90;;;;;;;13.01;100.00;99661.84;1688114;83;21101;-64
2022/06/17 01:24:01;;;;;;;10.40;5.35;;;;;;;13.03;100.00;99663.75;1672841;84;21078;-65
2022/06/17 01:26:28;;;;;;;10.98;5.60;;;;;;;12.98;100.00;99665.98;1670845;84;21095;-64
2022/06/17 01:28:54;;;;;;;;;;;;;;;12.94;100.00;99664.92;1678621;85;21589;-64
2022/06/17 01:31:22;;;;;;;9.65;6.22;;;;;;;12.90;100.00;99668.78;1678854;84;20131;-64
2022/06/17 01:33:49;;;;;;;12.15;6.72;;;;;;;12.78;100.00;99662.91;1676029;84;21663;-64
2022/06/17 01:36:20;;;;;;;11.15;6.95;;;;;;;12.79;100.00;99667.25;1690897;84;21071;-64
2022/06/17 01:38:54;;;;;;;10.88;6.40;;;;;;;12.83;100.00;99661.47;1680120;84;21023;-64
2022/06/17 01:41:24;;;;;;;11.97;6.45;;;;;;;12.83;100.00;99661.47;1690308;84;21037;-64
2022/06/17 01:43:57;;;;;;;12.50;6.45;;;;;;;12.78;100.00;99662.09;1692640;83;21510;-65
2022/06/17 01:46:33;;;;;;;13.78;6.45;;;;;;;12.69;100.00;99656.97;1688658;83;21141;-64
2022/06/17 01:49:05;;;;;;;10.82;5.67;;;;;;;12.67;100.00;99655.09;1672289;84;21065;-64
2022/06/17 01:51:35;;;;;;;9.40;5.50;;;;;;;12.68;100.00;99658.09;1674483;84;21112;-64
2022/06/17 01:54:08;;;;;;;8.40;5.45;;;;;;;12.72;100.00;99663.22;1655816;85;21027;-64
2022/06/17 01:56:36;;;;;;;7.78;5.47;;;;;;;12.74;100.00;99662.39;1677403;84;21090;-64
2022/06/17 01:59:14;;;;;;;10.53;5.62;;;;;;;12.80;100.00;99662.60;1653413;84;20989;-64
2022/06/17 02:01:44;;;;;;;11.20;5.67;;;;;;;12.87;100.00;99664.45;1670402;85;21053;-64
2022/06/17 02:04:20;;;;;;;9.70;6.22;;;;;;;12.91;100.00;99666.87;1647008;86;20970;-64
2022/06/17 02:06:55;;;;;;;13.58;5.78;;;;;;;12.94;100.00;99660.27;1649924;85;21078;-64
2022/06/17 02:09:22;;;;;;;9.00;6.10;;;;;;;12.94;100.00;99663.55;1697016;83;21058;-65
2022/06/17 02:11:51;;;;;;;10.70;6.17;;;;;;;12.90;100.00;99658.40;1689484;82;21119;-64
2022/06/17 02:14:20;;;;;;;11.60;5.47;;;;;;;12.89;100.00;99652.69;1639529;84;21038;-64
2022/06/17 02:16:52;;;;;;;11.28;6.25;;;;;;;12.90;100.00;99651.02;1679212;84;21611;-64
2022/06/17 02:19:23;;;;;;;10.38;5.47;;;;;;;12.94;100.00;99655.36;1650682;85;21015;-64
2022/06/17 02:21:55;;;;;;;8.95;5.30;;;;;;;12.95;100.00;99646.88;1681772;85;21084;-64
2022/06/17 02:24:23;;;;;;;9.63;6.12;;;;;;;12.98;100.00;99643.57;1655158;85;21037;-64
2022/06/17 02:26:49;;;;;;;;;;;;;;;13.03;100.00;99647.36;1623850;86;21082;-64
2022/06/17 02:29:16;;;;;;;10.25;5.20;;;;;;;13.08;100.00;99643.19;1673957;85;20175;-64
2022/06/17 02:31:42;;;;;;;9.70;5.83;;;;;;;13.03;100.00;99643.25;1652201;85;21600;-64
2022/06/17 02:34:12;;;;;;;10.32;5.70;;;;;;;13.08;100.00;99644.55;1645652;85;21555;-64
2022/06/17 02:37:09;;;;;;;8.28;5.45;;;;;;;13.16;100.00;99644.77;1670301;85;21571;-64
2022/06/17 02:39:37;;;;;;;9.55;6.28;;;;;;;13.27;100.00;99642.19;1692935;83;21545;-64
2022/06/17 02:42:05;;;;;;;8.88;5.35;;;;;;;13.38;100.00;99640.96;1687581;83;21160;-64
2022/06/17 02:44:40;;;;;;;8.50;6.00;;;;;;;13.45;100.00;99635.13;1669421;85;21038;-64
2022/06/17 02:47:06;;;;;;;7.37;5.33;;;;;;;13.48;100.00;99634.54;1667918;85;21138;-64
2022/06/17 02:49:34;;;;;;;8.18;5.10;;;;;;;13.52;100.00;99638.87;1667997;85;21077;-63
2022/06/17 02:52:04;;;;;;;7.12;4.60;;;;;;;13.59;100.00;99634.67;1697785;83;21039;-62
2022/06/17 02:54:42;;;;;;;9.23;5.17;;;;;;;13.71;100.00;99624.67;1683981;83;21490;-64
2022/06/17 02:57:12;;;;;;;7.95;4.95;;;;;;;13.83;100.00;99627.22;1691756;83;21090;-63
2022/06/17 02:59:43;;;;;;;6.83;4.58;;;;;;;13.92;100.00;99627.37;1693027;83;21037;-63
2022/06/17 03:02:15;;;;;;;8.45;5.08;;;;;;;13.98;100.00;99612.50;1637324;86;21035;-62
2022/06/17 03:04:43;;;;;;;7.78;3.95;;;;;;;14.06;100.00;99621.42;1660233;86;21606;-63
2022/06/17 03:07:17;;;;;;;9.65;4.17;;;;;;;14.09;100.00;99620.00;1666104;84;21696;-62
2022/06/17 03:09:44;;;;;;;6.53;3.90;;;;;;;14.17;100.00;99617.38;1666582;84;21027;-65
2022/06/17 03:12:20;;;;;;;;;;;;;;;14.23;100.00;99619.50;1684105;84;21094;-62
2022/06/17 03:15:09;;;;;;;5.65;3.65;;;;;;;14.28;100.00;99619.41;1665390;85;20143;-64
2022/06/17 03:17:43;;;;;;;6.28;4.47;;;;;;;14.27;100.00;99619.98;1721157;82;21585;-63
2022/06/17 03:20:14;;;;;;;6.22;3.80;;;;;;;14.36;100.00;99618.77;1712944;82;20992;-62
2022/06/17 03:22:42;;;;;;;6.03;3.80;;;;;;;14.51;100.00;99619.87;1719430;82;21047;-64
2022/06/17 03:25:35;;;;;;;9.73;4.42;;;;;;;14.66;100.00;99619.63;1709863;82;21007;-65
2022/06/17 03:28:05;;;;;;;7.72;3.77;;;;;;;14.74;100.00;99616.17;1723481;82;21062;-65
2022/06/17 03:30:43;;;;;;;7.53;3.47;;;;;;;14.79;100.00;99615.27;1715729;82;21055;-64
2022/06/17 03:33:23;;;;;;;6.50;4.15;;;;;;;14.91;100.00;99615.60;1705723;82;21045;-62
2022/06/17 03:35:57;;;;;;;5.85;3.42;;;;;;;15.02;100.00;99618.38;1716387;82;21492;-62
2022/06/17 03:38:34;;;;;;;5.65;3.42;;;;;;;15.16;100.00;99612.92;1695866;83;21063;-63
2022/06/17 03:41:23;;;;;;;7.58;3.30;;;;;;;15.29;100.00;99607.44;1681199;84;21096;-63
2022/06/17 03:43:57;;;;;;;7.28;3.42;;;;;;;15.35;100.00;99615.80;1718451;82;21632;-63
2022/06/17 03:46:25;;;;;;;6.40;3.50;;;;;;;15.37;100.00;99610.81;1721553;82;21024;-63
2022/06/17 03:48:58;;;;;;;5.80;3.27;;;;;;;15.49;100.00;99606.77;1722632;82;21066;-63
2022/06/17 03:51:26;;;;;;;6.83;3.60;;;;;;;15.65;100.00;99603.96;1721322;82;21011;-63
2022/06/17 03:53:52;;;;;;;6.85;3.37;;;;;;;15.83;100.00;99598.89;1677612;84;20999;-63
2022/06/17 03:56:24;;;;;;;;;;;;;;;15.98;100.00;99594.98;1721597;82;21518;-62
2022/06/17 03:58:54;;;;;;;8.15;3.40;;;;;;;16.08;100.00;99595.55;1706320;82;20119;-66
2022/06/17 04:01:38;;;;;;;5.42;3.05;;;;;;;16.13;100.00;99591.30;1723725;81;21049;-66
2022/06/17 04:04:19;;;;;;;4.58;3.15;;;;;;;16.27;100.00;99589.85;1718486;82;20959;-66
2022/06/17 04:06:49;;;;;;;5.40;3.17;;;;;;;16.54;100.00;99591.66;1723221;82;21174;-66
2022/06/17 04:09:27;;;;;;;7.85;3.25;;;;;;;16.74;100.00;99585.09;1721767;82;20978;-66
2022/06/17 04:12:00;;;;;;;7.03;3.87;;;;;;;16.87;100.00;99586.11;1705610;82;21048;-66
2022/06/17 04:15:02;;;;;;;11.25;4.50;;;;;;;17.02;100.00;99586.26;1717691;82;20975;-66
2022/06/17 04:17:48;;;;;;;6.05;3.58;;;;;;;17.16;100.00;99583.64;1665642;86;21028;-67
2022/06/17 04:20:32;;;;;;;5.28;3.90;;;;;;;17.31;100.00;99587.34;1721195;82;20979;-66
2022/06/17 04:23:21;;;;;;;6.17;3.50;;;;;;;17.51;100.00;99577.66;1668204;85;21083;-66
2022/06/17 04:26:08;;;;;;;7.53;3.17;;;;;;;17.77;100.00;99579.92;1715441;81;21004;-66
2022/06/17 04:28:45;;;;;;;9.23;3.42;;;;;;;18.01;100.00;99579.43;1722492;82;21079;-66
2022/06/17 04:31:20;;;;;;;5.58;3.35;;;;;;;18.27;100.00;99573.91;1700071;83;21704;-66
2022/06/17 04:33:56;;;;;;;7.03;3.12;;;;;;;18.51;100.00;99574.78;1722268;82;21462;-66
2022/06/17 04:36:35;;;;;;;6.17;3.40;;;;;;;18.74;100.00;99575.59;1718713;82;21676;-66
2022/06/17 04:39:34;;;;;;;8.35;3.83;;;;;;;18.99;100.00;99579.40;1712655;82;21019;-65
2022/06/17 04:42:06;;;;;;;6.12;3.42;;;;;;;19.18;100.00;99574.29;1706711;82;21141;-66
2022/06/17 04:44:35;;;;;;;7.42;3.50;;;;;;;19.32;100.00;99573.48;1721212;82;21031;-65
2022/06/17 04:47:13;;;;;;;7.35;3.60;;;;;;;19.52;100.00;99566.41;1720222;82;21078;-64
2022/06/17 04:49:46;;;;;;;6.10;3.42;;;;;;;19.68;100.00;99566.63;1712492;82;21585;-64
2022/06/17 04:52:34;;;;;;;5.60;3.50;;;;;;;19.89;100.00;99568.83;1677127;84;21563;-65
2022/06/17 04:55:19;;;;;;;6.85;3.52;;;;;;;20.12;100.00;99559.02;1674824;84;20991;-64
2022/06/17 04:58:04;;;;;;;7.30;3.58;;;;;;;20.34;100.00;99561.45;1668580;84;21080;-64
2022/06/17 05:00:31;;;;;;;7.25;3.45;;;;;;;20.65;100.00;99565.70;1715117;82;21701;-63
2022/06/17 05:02:59;;;;;;;6.83;3.50;;;;;;;20.89;100.00;99556.05;1723198;81;21057;-63
2022/06/17 05:05:38;;;;;;;5.65;3.27;;;;;;;21.07;100.00;99553.30;1726865;81;20991;-64
2022/06/17 05:08:25;;;;;;;7.05;2.83;;;;;;;21.25;100.00;99554.72;1714163;81;21034;-65
2022/06/17 05:11:03;;;;;;;4.87;2.70;;;;;;;21.55;100.00;99556.63;1703037;81;21073;-64
2022/06/17 05:13:35;;;;;;;6.08;3.20;;;;;;;21.85;100.00;99553.00;1728768;82;21011;-64
2022/06/17 05:16:05;;;;;;;5.47;3.20;;;;;;;22.48;100.00;99548.48;1727354;80;21814;-64
2022/06/17 05:18:32;;;;;;;7.70;3.35;;;;;;;22.69;100.00;99550.47;1729401;82;21034;-65
2022/06/17 05:21:18;;;;;;;;;;;;;;;22.69;100.00;99550.47;1724733;81;21534;-64
2022/06/17 05:23:47;;;;;;;8.03;2.97;;;;;;;22.97;100.00;99548.19;1729372;81;20196;-64
2022/06/17 05:26:14;;;;;;;5.03;2.60;;;;;;;23.17;100.00;99540.16;1729147;81;21559;-65
2022/06/17 05:28:41;;;;;;;7.37;2.70;;;;;;;23.37;100.00;99541.03;1722185;81;21062;-64
2022/06/17 05:31:10;;;;;;;3.75;2.47;;;;;;;23.52;100.00;99542.44;1728740;81;21122;-65
2022/06/17 05:33:42;;;;;;;5.03;2.72;;;;;;;23.60;100.00;99542.80;1725243;81;21090;-65
2022/06/17 05:36:09;;;;;;;4.50;2.52;;;;;;;23.58;100.00;99541.55;1730084;81;21122;-64
2022/06/17 05:38:36;;;;;;;4.70;3.00;;;;;;;23.63;100.00;99538.51;1723596;82;21276;-65
2022/06/17 05:41:06;;;;;;;7.03;3.00;;;;;;;23.65;100.00;99541.13;1710010;81;21100;-65
2022/06/17 05:43:34;;;;;;;8.00;3.17;;;;;;;23.61;100.00;99542.21;1725032;83;21401;-64
2022/06/17 05:46:01;;;;;;;4.40;2.95;;;;;;;23.52;100.00;99543.02;1707897;81;21055;-64
2022/06/17 05:48:33;;;;;;;5.40;4.22;;;;;;;23.45;100.00;99540.88;1757677;81;21074;-65
2022/06/17 05:51:01;;;;;;;5.45;3.20;;;;;;;23.53;100.00;99539.85;1715854;81;21111;-65
2022/06/17 05:53:33;;;;;;;4.70;2.50;;;;;;;23.79;100.00;99536.47;1665426;86;21067;-64
2022/06/17 05:56:06;;;;;;;6.80;2.72;;;;;;;24.01;100.00;99545.48;1660426;85;22117;-65
2022/06/17 05:58:32;;;;;;;6.58;2.67;;;;;;;24.06;99.01;99538.22;1680804;84;21609;-65
2022/06/17 06:00:59;;;;;;;5.92;2.72;;;;;;;24.01;100.00;99534.36;1662423;86;21058;-65
2022/06/17 06:03:28;;;;;;;6.80;2.60;;;;;;;24.09;99.59;99531.92;1627197;86;21134;-65
2022/06/17 06:09:40;;;;;;;4.80;2.47;;;;;;;24.41;100.00;99541.54;1647573;85;21153;-69
2022/06/17 06:12:09;;;;;;;4.62;2.33;;;;;;;24.65;97.44;99542.59;1672996;85;21093;-70
2022/06/17 06:14:36;;;;;;;5.45;2.35;;;;;;;24.79;94.70;99541.45;1651115;86;21263;-70
2022/06/17 06:17:04;;;;;;;6.87;2.12;;;;;;;24.97;93.18;99539.81;1625841;88;21371;-70
2022/06/17 06:19:32;;;;;;;4.28;1.65;;;;;;;25.15;88.15;99540.09;1637846;87;21059;-69
2022/06/17 06:22:00;;;;;;;3.75;1.75;;;;;;;25.22;83.92;99534.02;1642104;87;21045;-68
2022/06/17 06:24:26;;;;;;;4.47;2.00;;;;;;;25.27;81.28;99528.73;1607893;87;21026;-69
2022/06/17 06:26:52;;;;;;;2.72;1.42;;;;;;;25.30;80.67;99534.14;1608596;89;21507;-69
2022/06/17 06:29:22;;;;;;;2.72;1.20;;;;;;;25.42;78.25;99526.38;1635031;86;21027;-68
2022/06/17 06:31:49;;;;;;;3.45;1.25;;;;;;;25.55;78.62;99526.98;1633230;87;21046;-70
2022/06/17 06:34:26;;;;;;;3.95;1.30;;;;;;;25.83;79.98;99532.14;1621288;87;21010;-69
2022/06/17 06:36:53;;;;;;;5.15;1.42;;;;;;;26.31;72.84;99523.41;1669401;86;21069;-69
2022/06/17 06:39:19;;;;;;;2.47;0.98;;;;;;;26.61;63.86;99517.14;1643134;86;21030;-69
2022/06/17 06:41:46;;;;;;;4.10;1.02;;;;;;;26.64;61.52;99513.60;1642813;87;21030;-69
2022/06/17 06:44:13;;;;;;;4.85;1.07;;;;;;;26.68;59.39;99518.02;1622808;87;21014;-70
2022/06/17 06:46:41;;;;;;;2.77;0.82;;;;;;;26.81;60.31;99519.94;1638070;87;21082;-70
2022/06/17 06:49:09;;;;;;;2.10;0.80;;;;;;;26.88;56.45;99514.45;1633859;86;21009;-70
2022/06/17 06:51:36;;;;;;;2.58;0.80;;;;;;;26.94;56.52;99517.08;1623994;88;21026;-69
2022/06/17 06:54:05;;;;;;;6.03;0.95;;;;;;;27.06;52.98;99516.80;1648557;86;21074;-69
2022/06/17 06:56:31;;;;;;;2.40;0.98;;;;;;;27.20;54.90;99523.09;1653737;86;21007;-69
2022/06/17 06:58:58;;;;;;;3.85;1.12;;;;;;;27.48;52.97;99524.70;1642000;86;21062;-69
2022/06/17 07:01:24;;;;;;;3.50;1.22;;;;;;;27.81;53.09;99517.30;1643045;86;21465;-69
2022/06/17 07:03:51;;;;;;;4.00;1.35;;;;;;;28.20;53.36;99518.27;1644103;86;21034;-70
2022/06/17 07:06:17;;;;;;;5.87;1.37;;;;;;;28.47;52.32;99518.16;1642341;87;20997;-69
2022/06/17 07:08:44;;;;;;;3.83;1.60;;;;;;;28.77;49.25;99516.42;1646537;86;21557;-69
2022/06/17 07:11:10;;;;;;;3.58;1.12;;;;;;;28.99;47.44;99515.84;1652265;86;21439;-69
2022/06/17 07:13:38;;;;;;;3.50;1.15;;;;;;;29.21;48.14;99517.44;1654498;86;21010;-70
2022/06/17 07:16:08;;;;;;;2.70;1.02;;;;;;;29.46;49.52;99517.43;1658094;86;21014;-69
2022/06/17 07:18:36;;;;;;;3.22;1.10;;;;;;;29.71;46.99;99514.56;1641745;86;21603;-69
2022/06/17 07:21:06;;;;;;;2.33;1.00;;;;;;;30.03;43.13;99517.48;1609820;87;21474;-69
2022/06/17 07:23:41;;;;;;;4.50;0.90;;;;;;;30.30;42.05;99525.37;1624739;87;21132;-68
2022/06/17 07:26:16;;;;;;;3.17;0.90;;;;;;;30.34;39.15;99524.75;1627958;88;21019;-69
2022/06/17 07:28:45;;;;;;;2.75;0.88;;;;;;;29.95;37.23;99520.13;1638489;86;21515;-68
2022/06/17 07:31:11;;;;;;;1.65;0.68;;;;;;;29.62;39.17;99522.80;1646675;86;21015;-69
2022/06/17 07:33:39;;;;;;;3.08;0.80;;;;;;;29.61;38.89;99524.02;1645297;86;21534;-70
2022/06/17 07:36:07;;;;;;;3.33;1.07;;;;;;;29.67;39.16;99521.59;1642155;87;21065;-68
2022/06/17 07:41:24;;;;;;;2.80;1.00;;;;;;;29.92;38.78;99527.95;1670023;85;21018;-69
2022/06/17 07:43:51;;;;;;;4.15;1.45;;;;;;;29.68;38.01;99520.98;1650814;86;21034;-70
2022/06/17 07:46:18;;;;;;;6.85;2.33;;;;;;;29.55;39.81;99525.61;1621460;88;21561;-70
2022/06/17 07:48:45;;;;;;;2.58;0.95;;;;;;;29.73;43.00;99528.37;1635921;86;21157;-69
2022/06/17 07:51:13;;;;;;;3.72;1.37;;;;;;;29.91;39.85;99533.95;1637292;87;20974;-69
2022/06/17 07:53:42;;;;;;;5.05;1.77;;;;;;;29.81;37.28;99522.14;1641429;87;21046;-68
2022/06/17 07:56:13;;;;;;;3.55;1.42;;;;;;;29.57;38.79;99532.23;1614697;87;20985;-68
2022/06/17 07:58:40;;;;;;;3.92;1.22;;;;;;;29.50;39.32;99525.23;1637726;86;21026;-70
2022/06/17 08:01:07;;;;;;;1.55;0.80;;;;;;;29.37;39.64;99533.88;1658738;86;21348;-68
2022/06/17 08:03:34;;;;;;;1.92;0.93;;;;;;;28.87;37.72;99524.06;1641244;87;21082;-68
2022/06/17 08:06:02;;;;;;;3.22;0.88;;;;;;;28.17;38.70;99523.26;1642363;86;20964;-68
2022/06/17 08:08:29;;;;;;;2.05;0.60;;;;;;;27.81;40.41;99530.66;1651196;86;21082;-67
2022/06/17 08:10:58;;;;;;;4.20;0.90;;;;;;;27.66;39.97;99530.41;1643059;86;21422;-68
2022/06/17 08:13:26;;;;;;;3.72;0.93;;;;;;;27.68;39.76;99515.42;1607444;87;21051;-67
2022/06/17 08:15:55;;;;;;;3.15;0.70;;;;;;;27.92;41.31;99520.33;1643041;86;21026;-69
2022/06/17 08:18:22;;;;;;;2.67;1.00;;;;;;;28.06;41.18;99520.39;1644171;87;21041;-69
2022/06/17 08:20:49;;;;;;;4.40;0.80;;;;;;;28.05;41.71;99523.01;1646751;86;21010;-69
2022/06/17 08:23:16;;;;;;;2.62;0.80;;;;;;;28.09;40.99;99523.83;1641859;86;21111;-69
2022/06/17 08:25:45;;;;;;;2.50;1.00;;;;;;;28.24;41.93;99512.69;1625207;87;21035;-67
2022/06/17 08:28:14;;;;;;;2.20;0.70;;;;;;;28.31;39.78;99509.91;1620248;87;21109;-69
2022/06/17 08:30:44;;;;;;;2.52;0.80;;;;;;;28.41;40.40;99506.36;1623692;87;20990;-71
2022/06/17 08:33:11;;;;;;;2.00;0.68;;;;;;;28.71;39.98;99502.62;1634181;87;21882;-69
2022/06/17 08:35:40;;;;;;;3.20;1.07;;;;;;;28.90;40.05;99502.25;1638628;86;21461;-69
2022/06/17 08:38:20;;;;;;;4.30;2.22;;;;;;;29.06;38.67;99503.23;1603948;88;21079;-72
2022/06/17 08:40:57;;;;;;;3.55;2.17;;;;;;;29.22;39.32;99502.83;1607866;88;21455;-71
2022/06/17 08:44:14;;;;;;;2.37;1.20;;;;;;;29.43;39.48;99502.82;1604423;89;21059;-70
2022/06/17 08:46:50;;;;;;;;;;;;;;;29.36;37.89;99501.44;1613509;89;21526;-69
2022/06/17 08:49:42;;;;;;;3.25;1.45;;;;;;;28.90;35.42;99507.84;1661687;86;20109;-67
2022/06/17 08:52:29;;;;;;;6.12;2.37;;;;;;;28.36;35.47;99508.13;1664412;86;21568;-69
2022/06/17 08:55:19;;;;;;;2.70;0.80;;;;;;;28.11;35.43;99503.27;1606413;88;21036;-68
2022/06/17 08:58:06;;;;;;;2.12;0.70;;;;;;;28.00;36.94;99509.98;1621126;88;21083;-69
2022/06/17 09:00:51;;;;;;;2.77;0.70;;;;;;;27.47;39.65;99504.13;1615218;87;20998;-68
2022/06/17 09:03:31;;;;;;;3.55;1.00;;;;;;;27.14;38.02;99503.07;1641864;87;21571;-68
2022/06/17 09:06:37;;;;;;;2.30;0.60;;;;;;;27.02;39.07;99506.78;1651101;87;21831;-69
2022/06/17 09:09:42;;;;;;;4.28;0.80;;;;;;;26.97;40.48;99509.33;1633454;87;21022;-69
2022/06/17 09:12:25;;;;;;;2.25;0.70;;;;;;;26.94;40.45;99511.50;1628480;87;21073;-69
2022/06/17 09:15:14;;;;;;;2.75;0.75;;;;;;;26.86;41.77;99508.42;1613942;89;21553;-71
2022/06/17 09:18:00;;;;;;;4.22;0.80;;;;;;;26.66;41.60;99503.64;1630211;86;21134;-71
2022/06/17 09:20:36;;;;;;;3.33;1.22;;;;;;;26.39;43.23;99509.16;1608972;87;20991;-71
2022/06/17 09:23:03;;;;;;;2.08;0.72;;;;;;;26.25;44.10;99504.02;1609685;88;21083;-71
2022/06/17 09:28:48;;;;;;;2.45;1.00;;;;;;;26.40;47.76;99489.02;1659899;85;21106;-66
2022/06/17 09:31:32;;;;;;;8.18;0.65;;;;;;;26.31;43.67;99494.92;1714967;83;21755;-67
2022/06/17 09:34:10;;;;;;;2.10;0.70;;;;;;;26.27;41.14;99489.89;1694139;85;21051;-67
2022/06/17 09:37:16;;;;;;;2.22;0.82;;;;;;;26.28;41.55;99491.50;1728162;82;21667;-66
2022/06/17 09:39:51;;;;;;;1.60;0.70;;;;;;;26.30;42.51;99490.52;1699012;83;20998;-66
2022/06/17 09:42:35;;;;;;;2.15;0.70;;;;;;;26.33;42.00;99483.36;1701917;82;21155;-66
2022/06/17 09:45:25;;;;;;;4.55;1.00;;;;;;;26.27;42.68;99489.89;1729355;82;21135;-65
2022/06/17 09:48:00;;;;;;;2.60;0.98;;;;;;;26.11;43.30;99487.90;1735537;82;21134;-67
2022/06/17 09:50:31;;;;;;;5.05;1.00;;;;;;;26.03;43.36;99495.38;1740285;82;20995;-68
2022/06/17 09:53:14;;;;;;;2.65;0.80;;;;;;;25.81;41.21;99494.09;1737028;82;21692;-67
2022/06/17 09:56:14;;;;;;;2.08;0.70;;;;;;;25.66;42.75;99491.12;1676791;85;21119;-67
2022/06/17 09:58:48;;;;;;;1.57;0.70;;;;;;;25.69;43.00;99489.55;1676686;85;21068;-68
2022/06/17 10:01:15;;;;;;;2.30;0.60;;;;;;;25.64;40.60;99478.16;1674657;84;21636;-68
2022/06/17 10:03:41;;;;;;;3.12;0.88;;;;;;;25.75;42.68;99494.41;1661488;86;21012;-68
2022/06/17 10:06:41;;;;;;;4.20;0.82;;;;;;;25.81;42.23;99485.14;1670610;84;21064;-67
2022/06/17 10:09:44;;;;;;;2.00;0.90;;;;;;;25.80;42.48;99482.13;1672052;85;21067;-67
2022/06/17 10:12:29;;;;;;;3.60;0.70;;;;;;;25.71;41.51;99481.04;1661732;86;21099;-66
2022/06/17 10:15:14;;;;;;;4.22;0.93;;;;;;;25.52;40.82;99483.15;1661700;86;21067;-65
2022/06/17 10:18:34;;;;;;;1.98;0.60;;;;;;;25.29;43.14;99487.98;1687805;84;21100;-66
2022/06/17 10:21:16;;;;;;;2.12;0.80;;;;;;;25.36;44.95;99488.08;1675774;84;21080;-65
2022/06/17 10:23:57;;;;;;;1.12;0.60;;;;;;;25.45;41.84;99488.01;1649418;85;21013;-66
2022/06/17 10:27:00;;;;;;;3.30;0.70;;;;;;;25.51;40.97;99490.70;1676753;84;21081;-66
2022/06/17 10:29:56;;;;;;;1.85;0.80;;;;;;;25.49;41.78;99490.84;1650001;85;21542;-66
2022/06/17 10:32:23;;;;;;;3.35;1.00;;;;;;;25.62;41.11;99488.06;1656433;86;21054;-66
2022/06/17 10:34:58;;;;;;;3.40;0.62;;;;;;;25.67;43.35;99480.19;1674426;84;21166;-67
2022/06/17 10:37:26;;;;;;;2.00;0.80;;;;;;;25.83;43.08;99478.58;1703161;84;21117;-68
2022/06/17 10:39:53;;;;;;;2.27;0.88;;;;;;;25.95;45.00;99468.58;1703802;84;20974;-68
2022/06/17 10:42:20;;;;;;;7.22;2.30;;;;;;;26.13;44.28;99468.19;1712839;84;21110;-67
2022/06/17 10:44:50;;;;;;;6.70;2.98;;;;;;;26.20;44.13;99471.68;1682030;85;20987;-66
2022/06/17 10:47:29;;;;;;;6.72;3.40;;;;;;;26.06;46.35;99477.88;1671039;85;21555;-66
2022/06/17 10:50:06;;;;;;;7.55;3.40;;;;;;;25.86;45.92;99472.86;1688955;84;20999;-66
2022/06/17 10:52:38;;;;;;;6.42;3.45;;;;;;;25.58;46.20;99469.90;1693325;84;22187;-65
2022/06/17 10:55:07;;;;;;;6.37;3.85;;;;;;;25.28;47.49;99484.38;1745565;82;21070;-66
2022/06/17 10:57:37;;;;;;;8.65;3.47;;;;;;;25.16;47.65;99481.80;1710773;82;21145;-67
2022/06/17 11:00:24;;;;;;;5.87;3.50;;;;;;;25.14;47.43;99475.23;1746113;82;21509;-66
2022/06/17 11:02:51;;;;;;;8.45;4.45;;;;;;;25.15;47.04;99483.00;1746204;82;21565;-66
2022/06/17 11:05:35;;;;;;;7.83;4.25;;;;;;;24.94;46.18;99476.48;1746213;82;21007;-66
2022/06/17 11:08:00;;;;;;;6.65;4.22;;;;;;;24.78;48.07;99478.00;1727222;82;21647;-66
2022/06/17 11:10:29;;;;;;;6.45;4.08;;;;;;;24.82;49.51;99473.08;1726359;82;21070;-67
2022/06/17 11:13:04;;;;;;;9.18;4.40;;;;;;;24.98;48.66;99471.78;1725872;82;21098;-67
2022/06/17 11:15:36;;;;;;;8.28;5.15;;;;;;;25.11;49.24;99469.61;1726046;82;21529;-66
2022/06/17 11:18:08;;;;;;;8.98;4.95;;;;;;;25.23;51.41;99474.36;1723725;82;21066;-67
2022/06/17 11:20:38;;;;;;;11.10;4.83;;;;;;;25.26;49.29;99470.81;1726296;83;20991;-66
2022/06/17 11:23:18;;;;;;;9.00;5.42;;;;;;;25.20;48.52;99464.55;1726130;83;21607;-67
2022/06/17 11:25:46;;;;;;;9.55;5.47;;;;;;;25.17;47.79;99461.94;1723602;82;20995;-66
2022/06/17 11:28:27;;;;;;;9.05;5.25;;;;;;;25.08;47.86;99465.56;1731431;82;20994;-67
2022/06/17 11:31:03;;;;;;;8.58;4.25;;;;;;;24.96;49.33;99467.19;1738402;82;20970;-66
2022/06/17 11:33:57;;;;;;;7.85;4.85;;;;;;;24.84;48.40;99461.81;1739553;82;21425;-67
2022/06/17 11:36:32;;;;;;;8.90;4.60;;;;;;;24.66;47.96;99460.67;1741189;81;21038;-66
2022/06/17 11:39:25;;;;;;;7.90;4.50;;;;;;;24.62;48.80;99460.62;1759629;81;20998;-67
2022/06/17 11:41:51;;;;;;;9.48;4.03;;;;;;;24.62;49.50;99464.02;1737459;81;21441;-67
2022/06/17 11:44:19;;;;;;;6.22;3.17;;;;;;;24.54;48.95;99462.28;1758327;81;21533;-66
2022/06/17 11:47:03;;;;;;;6.95;3.60;;;;;;;24.56;48.28;99459.91;1738338;82;21070;-67
2022/06/17 11:49:35;;;;;;;6.83;3.37;;;;;;;24.54;48.27;99459.50;1739097;82;21512;-66
2022/06/17 11:52:08;;;;;;;4.47;2.12;;;;;;;24.51;49.90;99451.89;1739279;82;21122;-67
2022/06/17 11:54:38;;;;;;;4.08;1.50;;;;;;;24.53;50.10;99457.30;1739178;82;20999;-67
2022/06/17 11:57:21;;;;;;;3.10;1.60;;;;;;;24.52;48.90;99458.46;1738148;81;21070;-66
2022/06/17 11:59:55;;;;;;;3.25;1.57;;;;;;;24.48;47.96;99460.98;1738329;82;21030;-66
2022/06/17 12:02:22;;;;;;;5.40;1.92;;;;;;;24.36;48.69;99458.38;1731132;82;21074;-69
2022/06/17 12:04:52;;;;;;;4.20;1.82;;;;;;;24.35;49.03;99453.39;1659316;85;21617;-69
2022/06/17 12:07:49;;;;;;;4.85;2.00;;;;;;;24.25;50.39;99458.98;1666433;86;21497;-69
2022/06/17 12:10:49;;;;;;;4.40;2.45;;;;;;;24.21;50.90;99459.50;1668920;85;21064;-68
2022/06/17 12:13:37;;;;;;;4.67;2.00;;;;;;;23.99;51.73;99448.30;1684998;85;21039;-69
2022/06/17 12:16:26;;;;;;;3.83;2.00;;;;;;;23.81;52.19;99441.00;1677104;84;20993;-70